sensor_id;sensor_type;location;lat;lon;timestamp;temperature;humidity
7498;DHT22;3790;48.806;9.140;2024-03-23T00:57:34;12.70;99.90
7498;DHT22;3790;48.806;9.140;2024-03-23T01:02:35;12.50;99.90
7498;DHT22;3790;48.806;9.140;2024-03-23T01:07:36;12.50;99.90
7498;DHT22;3790;48.806;9.140;2024-03-23T01:12:36;12.60;99.90
7498;DHT22;3790;48.806;9.140;2024-03-23T01:17:37;12.70;99.90
7498;DHT22;3790;48.806;9.140;2024-03-23T01:22:37;12.80;99.90
7498;DHT22;3790;48.806;9.140;2024-03-23T01:27:37;12.80;99.90
7498;DHT22;3790;48.806;9.140;2024-03-23T01:32:38;12.80;99.90
7498;DHT22;3790;48.806;9.140;2024-03-23T01:37:38;12.80;99.90
7498;DHT22;3790;48.806;9.140;2024-03-23T01:42:39;12.80;99.90
7498;DHT22;3790;48.806;9.140;2024-03-23T01:47:40;12.70;99.90
7498;DHT22;3790;48.806;9.140;2024-03-23T01:52:40;12.80;99.90
7498;DHT22;3790;48.806;9.140;2024-03-23T01:57:41;12.90;99.90
7498;DHT22;3790;48.806;9.140;2024-03-23T02:02:45;12.80;99.90
7498;DHT22;3790;48.806;9.140;2024-03-23T02:07:45;12.80;99.90
7498;DHT22;3790;48.806;9.140;2024-03-23T02:12:46;12.60;99.90
7498;DHT22;3790;48.806;9.140;2024-03-23T02:17:47;12.50;99.90
7498;DHT22;3790;48.806;9.140;2024-03-23T02:22:51;12.40;99.90
7498;DHT22;3790;48.806;9.140;2024-03-23T02:27:52;12.20;99.90
7498;DHT22;3790;48.806;9.140;2024-03-23T02:32:54;12.20;99.90
7498;DHT22;3790;48.806;9.140;2024-03-23T02:37:55;12.10;99.90
7498;DHT22;3790;48.806;9.140;2024-03-23T02:42:56;12.10;99.90
7498;DHT22;3790;48.806;9.140;2024-03-23T02:47:57;12.00;99.90
7498;DHT22;3790;48.806;9.140;2024-03-23T02:52:57;12.00;99.90
7498;DHT22;3790;48.806;9.140;2024-03-23T02:57:58;12.00;99.90
7498;DHT22;3790;48.806;9.140;2024-03-23T03:03:02;12.00;99.90
7498;DHT22;3790;48.806;9.140;2024-03-23T03:08:03;12.00;99.90
7498;DHT22;3790;48.806;9.140;2024-03-23T03:13:04;11.90;99.90
7498;DHT22;3790;48.806;9.140;2024-03-23T03:18:05;11.80;99.90
7498;DHT22;3790;48.806;9.140;2024-03-23T03:23:06;11.70;99.90
7498;DHT22;3790;48.806;9.140;2024-03-23T03:28:06;11.70;99.90
7498;DHT22;3790;48.806;9.140;2024-03-23T03:33:07;11.70;99.90
7498;DHT22;3790;48.806;9.140;2024-03-23T03:38:07;11.70;99.90
7498;DHT22;3790;48.806;9.140;2024-03-23T03:43:08;11.60;99.90
7498;DHT22;3790;48.806;9.140;2024-03-23T03:48:08;11.60;99.90
7498;DHT22;3790;48.806;9.140;2024-03-23T03:53:09;11.60;99.90
7498;DHT22;3790;48.806;9.140;2024-03-23T03:58:10;11.50;99.90
7498;DHT22;3790;48.806;9.140;2024-03-23T04:03:10;11.40;99.90
7498;DHT22;3790;48.806;9.140;2024-03-23T04:08:11;11.40;99.90
7498;DHT22;3790;48.806;9.140;2024-03-23T04:13:12;11.50;99.90
7498;DHT22;3790;48.806;9.140;2024-03-23T04:18:15;11.50;99.90
7498;DHT22;3790;48.806;9.140;2024-03-23T04:23:15;11.70;99.90
7498;DHT22;3790;48.806;9.140;2024-03-23T04:28:16;11.80;99.90
7498;DHT22;3790;48.806;9.140;2024-03-23T04:33:16;11.90;99.90
7498;DHT22;3790;48.806;9.140;2024-03-23T04:38:17;11.50;99.90
7498;DHT22;3790;48.806;9.140;2024-03-23T04:43:17;11.00;99.90
7498;DHT22;3790;48.806;9.140;2024-03-23T04:48:22;10.50;99.90
7498;DHT22;3790;48.806;9.140;2024-03-23T04:53:23;10.50;99.90
7498;DHT22;3790;48.806;9.140;2024-03-23T04:58:28;10.30;99.90
7498;DHT22;3790;48.806;9.140;2024-03-23T05:03:28;10.10;99.90
7498;DHT22;3790;48.806;9.140;2024-03-23T05:08:29;10.10;99.90
7498;DHT22;3790;48.806;9.140;2024-03-23T05:13:30;9.90;99.90
7498;DHT22;3790;48.806;9.140;2024-03-23T05:18:31;9.80;99.90
7498;DHT22;3790;48.806;9.140;2024-03-23T05:23:32;9.80;99.90
7498;DHT22;3790;48.806;9.140;2024-03-23T05:28:32;9.80;99.90
7498;DHT22;3790;48.806;9.140;2024-03-23T05:33:33;9.80;99.90
7498;DHT22;3790;48.806;9.140;2024-03-23T05:38:33;9.70;99.90
7498;DHT22;3790;48.806;9.140;2024-03-23T05:43:34;9.40;99.90
7498;DHT22;3790;48.806;9.140;2024-03-23T05:48:34;9.40;99.90
7498;DHT22;3790;48.806;9.140;2024-03-23T05:53:35;9.40;99.90
7498;DHT22;3790;48.806;9.140;2024-03-23T05:58:36;9.20;99.90
7498;DHT22;3790;48.806;9.140;2024-03-23T06:03:36;9.00;99.90
7498;DHT22;3790;48.806;9.140;2024-03-23T06:08:37;8.90;99.90
7498;DHT22;3790;48.806;9.140;2024-03-23T06:13:38;8.80;99.90
7498;DHT22;3790;48.806;9.140;2024-03-23T06:18:39;8.80;99.90
7498;DHT22;3790;48.806;9.140;2024-03-23T06:23:41;8.80;99.90
7498;DHT22;3790;48.806;9.140;2024-03-23T06:28:42;8.70;99.90
7498;DHT22;3790;48.806;9.140;2024-03-23T06:33:42;8.80;99.90
7498;DHT22;3790;48.806;9.140;2024-03-23T06:38:43;8.80;99.90
7498;DHT22;3790;48.806;9.140;2024-03-23T06:43:45;8.70;99.90
7498;DHT22;3790;48.806;9.140;2024-03-23T06:48:45;8.60;99.90
7498;DHT22;3790;48.806;9.140;2024-03-23T06:53:46;8.60;99.90
7498;DHT22;3790;48.806;9.140;2024-03-23T06:58:46;8.60;99.90
7498;DHT22;3790;48.806;9.140;2024-03-23T07:03:47;8.50;99.90
7498;DHT22;3790;48.806;9.140;2024-03-23T07:08:47;8.30;99.90
7498;DHT22;3790;48.806;9.140;2024-03-23T07:13:52;8.30;99.90
7498;DHT22;3790;48.806;9.140;2024-03-23T07:18:55;8.30;99.90
7498;DHT22;3790;48.806;9.140;2024-03-23T07:23:55;8.40;99.90
7498;DHT22;3790;48.806;9.140;2024-03-23T07:28:59;8.60;99.90
7498;DHT22;3790;48.806;9.140;2024-03-23T07:33:59;8.70;99.90
7498;DHT22;3790;48.806;9.140;2024-03-23T07:39:00;8.60;99.90
7498;DHT22;3790;48.806;9.140;2024-03-23T07:44:00;8.40;99.90
7498;DHT22;3790;48.806;9.140;2024-03-23T07:49:01;8.20;99.90
7498;DHT22;3790;48.806;9.140;2024-03-23T07:54:01;8.00;99.90
7498;DHT22;3790;48.806;9.140;2024-03-23T07:59:02;7.70;99.90
7498;DHT22;3790;48.806;9.140;2024-03-23T08:04:03;7.40;99.90
7498;DHT22;3790;48.806;9.140;2024-03-23T08:09:04;7.40;99.90
7498;DHT22;3790;48.806;9.140;2024-03-23T08:14:04;7.50;99.90
7498;DHT22;3790;48.806;9.140;2024-03-23T08:19:06;7.70;99.90
7498;DHT22;3790;48.806;9.140;2024-03-23T08:24:09;7.70;99.90
7498;DHT22;3790;48.806;9.140;2024-03-23T08:29:09;7.70;99.90
7498;DHT22;3790;48.806;9.140;2024-03-23T08:34:10;7.80;99.90
7498;DHT22;3790;48.806;9.140;2024-03-23T08:39:10;7.60;99.90
7498;DHT22;3790;48.806;9.140;2024-03-23T08:44:11;7.40;99.90
7498;DHT22;3790;48.806;9.140;2024-03-23T08:49:11;7.30;99.90
7498;DHT22;3790;48.806;9.140;2024-03-23T08:54:12;7.50;99.90
7498;DHT22;3790;48.806;9.140;2024-03-23T08:59:13;7.70;99.90
7498;DHT22;3790;48.806;9.140;2024-03-23T09:04:13;7.50;99.90
7498;DHT22;3790;48.806;9.140;2024-03-23T09:09:14;7.50;99.90
7498;DHT22;3790;48.806;9.140;2024-03-23T09:14:14;7.60;99.90
7498;DHT22;3790;48.806;9.140;2024-03-23T09:19:15;7.70;99.90
7498;DHT22;3790;48.806;9.140;2024-03-23T09:24:15;7.90;99.90
7498;DHT22;3790;48.806;9.140;2024-03-23T09:29:16;8.00;99.90
7498;DHT22;3790;48.806;9.140;2024-03-23T09:34:16;8.10;99.90
7498;DHT22;3790;48.806;9.140;2024-03-23T09:39:17;8.30;99.90
7498;DHT22;3790;48.806;9.140;2024-03-23T09:44:18;8.90;99.90
7498;DHT22;3790;48.806;9.140;2024-03-23T09:49:19;8.90;99.90
7498;DHT22;3790;48.806;9.140;2024-03-23T09:54:19;9.10;99.90
7498;DHT22;3790;48.806;9.140;2024-03-23T09:59:20;9.10;99.90
7498;DHT22;3790;48.806;9.140;2024-03-23T10:04:40;9.20;99.90
7498;DHT22;3790;48.806;9.140;2024-03-23T10:09:40;9.10;99.90
7498;DHT22;3790;48.806;9.140;2024-03-23T10:14:42;8.90;99.90
7498;DHT22;3790;48.806;9.140;2024-03-23T10:19:42;9.00;99.90
7498;DHT22;3790;48.806;9.140;2024-03-23T10:24:43;8.70;99.90
7498;DHT22;3790;48.806;9.140;2024-03-23T10:29:44;8.90;99.90
7498;DHT22;3790;48.806;9.140;2024-03-23T10:34:45;9.20;99.90
7498;DHT22;3790;48.806;9.140;2024-03-23T10:39:46;9.50;99.90
7498;DHT22;3790;48.806;9.140;2024-03-23T10:44:46;9.40;99.90
7498;DHT22;3790;48.806;9.140;2024-03-23T10:49:47;9.30;99.90
7498;DHT22;3790;48.806;9.140;2024-03-23T10:54:51;8.60;99.90
7498;DHT22;3790;48.806;9.140;2024-03-23T10:59:52;7.30;99.90
7498;DHT22;3790;48.806;9.140;2024-03-23T11:04:54;6.40;99.90
7498;DHT22;3790;48.806;9.140;2024-03-23T11:09:54;5.70;99.90
7498;DHT22;3790;48.806;9.140;2024-03-23T11:14:59;5.10;99.90
7498;DHT22;3790;48.806;9.140;2024-03-23T11:20:02;5.30;99.90
7498;DHT22;3790;48.806;9.140;2024-03-23T11:25:19;5.70;99.90
7498;DHT22;3790;48.806;9.140;2024-03-23T11:30:27;6.00;99.90
7498;DHT22;3790;48.806;9.140;2024-03-23T11:35:33;6.20;99.90
7498;DHT22;3790;48.806;9.140;2024-03-23T11:40:36;6.40;99.90
7498;DHT22;3790;48.806;9.140;2024-03-23T11:45:38;6.80;99.90
7498;DHT22;3790;48.806;9.140;2024-03-23T11:50:43;7.30;99.90
7498;DHT22;3790;48.806;9.140;2024-03-23T11:55:49;7.50;99.90
7498;DHT22;3790;48.806;9.140;2024-03-23T12:01:02;7.80;99.90
7498;DHT22;3790;48.806;9.140;2024-03-23T12:06:04;7.90;99.90
7498;DHT22;3790;48.806;9.140;2024-03-23T12:11:11;8.10;99.90
7498;DHT22;3790;48.806;9.140;2024-03-23T12:16:16;8.30;99.90
7498;DHT22;3790;48.806;9.140;2024-03-23T12:21:17;8.70;99.90
7498;DHT22;3790;48.806;9.140;2024-03-23T12:26:18;8.70;99.90
7498;DHT22;3790;48.806;9.140;2024-03-23T12:31:18;8.70;99.90
7498;DHT22;3790;48.806;9.140;2024-03-23T12:36:19;8.90;99.90
7498;DHT22;3790;48.806;9.140;2024-03-23T12:41:19;8.80;99.90
7498;DHT22;3790;48.806;9.140;2024-03-23T12:46:20;8.70;99.90
7498;DHT22;3790;48.806;9.140;2024-03-23T12:51:20;8.70;99.90
7498;DHT22;3790;48.806;9.140;2024-03-23T12:56:21;8.70;99.90
7498;DHT22;3790;48.806;9.140;2024-03-23T13:01:22;8.80;99.90
7498;DHT22;3790;48.806;9.140;2024-03-23T13:06:22;9.40;99.90
7498;DHT22;3790;48.806;9.140;2024-03-23T13:11:23;9.90;99.90
7498;DHT22;3790;48.806;9.140;2024-03-23T13:16:24;9.80;99.90
7498;DHT22;3790;48.806;9.140;2024-03-23T13:21:24;9.80;99.90
7498;DHT22;3790;48.806;9.140;2024-03-23T13:26:25;9.60;99.90
7498;DHT22;3790;48.806;9.140;2024-03-23T13:31:25;9.60;99.90
7498;DHT22;3790;48.806;9.140;2024-03-23T13:36:26;9.50;99.90
7498;DHT22;3790;48.806;9.140;2024-03-23T13:41:26;9.50;99.90
7498;DHT22;3790;48.806;9.140;2024-03-23T13:46:27;9.80;99.90
7498;DHT22;3790;48.806;9.140;2024-03-23T13:51:28;10.10;99.90
7498;DHT22;3790;48.806;9.140;2024-03-23T13:56:28;10.40;99.90
7498;DHT22;3790;48.806;9.140;2024-03-23T14:01:29;10.30;99.90
7498;DHT22;3790;48.806;9.140;2024-03-23T14:06:29;8.90;99.90
7498;DHT22;3790;48.806;9.140;2024-03-23T14:11:30;6.80;99.90
7498;DHT22;3790;48.806;9.140;2024-03-23T14:16:31;6.10;99.90
7498;DHT22;3790;48.806;9.140;2024-03-23T14:21:32;5.20;99.90
7498;DHT22;3790;48.806;9.140;2024-03-23T14:26:32;4.50;99.90
7498;DHT22;3790;48.806;9.140;2024-03-23T14:31:33;4.50;99.90
7498;DHT22;3790;48.806;9.140;2024-03-23T14:36:34;5.00;99.90
7498;DHT22;3790;48.806;9.140;2024-03-23T14:41:34;5.70;99.90
7498;DHT22;3790;48.806;9.140;2024-03-23T14:46:35;6.30;99.90
7498;DHT22;3790;48.806;9.140;2024-03-23T14:51:35;6.80;99.90
7498;DHT22;3790;48.806;9.140;2024-03-23T14:56:36;6.80;99.90
7498;DHT22;3790;48.806;9.140;2024-03-23T15:01:37;6.50;99.90
7498;DHT22;3790;48.806;9.140;2024-03-23T15:06:37;6.60;99.90
7498;DHT22;3790;48.806;9.140;2024-03-23T15:11:38;6.80;99.90
7498;DHT22;3790;48.806;9.140;2024-03-23T15:16:39;6.90;99.90
7498;DHT22;3790;48.806;9.140;2024-03-23T15:21:39;6.80;99.90
7498;DHT22;3790;48.806;9.140;2024-03-23T15:26:40;7.10;99.90
7498;DHT22;3790;48.806;9.140;2024-03-23T15:31:42;7.40;99.90
7498;DHT22;3790;48.806;9.140;2024-03-23T15:36:43;7.60;99.90
7498;DHT22;3790;48.806;9.140;2024-03-23T15:41:45;7.40;99.90
7498;DHT22;3790;48.806;9.140;2024-03-23T15:46:46;7.60;99.90
7498;DHT22;3790;48.806;9.140;2024-03-23T15:51:46;7.80;99.90
7498;DHT22;3790;48.806;9.140;2024-03-23T15:56:47;8.10;99.90
7498;DHT22;3790;48.806;9.140;2024-03-23T16:01:48;8.30;99.90
7498;DHT22;3790;48.806;9.140;2024-03-23T16:06:48;8.10;99.90
7498;DHT22;3790;48.806;9.140;2024-03-23T16:11:50;8.40;99.90
7498;DHT22;3790;48.806;9.140;2024-03-23T16:16:51;8.60;99.90
7498;DHT22;3790;48.806;9.140;2024-03-23T16:21:54;8.50;99.90
7498;DHT22;3790;48.806;9.140;2024-03-23T16:26:55;8.30;99.90
7498;DHT22;3790;48.806;9.140;2024-03-23T16:31:56;8.10;99.90
7498;DHT22;3790;48.806;9.140;2024-03-23T16:36:56;8.00;99.90
7498;DHT22;3790;48.806;9.140;2024-03-23T16:41:57;7.60;99.90
7498;DHT22;3790;48.806;9.140;2024-03-23T16:46:57;7.30;99.90
7498;DHT22;3790;48.806;9.140;2024-03-23T16:51:58;6.80;99.90
7498;DHT22;3790;48.806;9.140;2024-03-23T16:56:58;5.90;99.90
7498;DHT22;3790;48.806;9.140;2024-03-23T17:01:59;5.60;99.90
7498;DHT22;3790;48.806;9.140;2024-03-23T17:06:59;5.50;99.90
7498;DHT22;3790;48.806;9.140;2024-03-23T17:12:00;5.50;99.90
7498;DHT22;3790;48.806;9.140;2024-03-23T17:17:00;5.60;99.90
7498;DHT22;3790;48.806;9.140;2024-03-23T17:22:01;5.80;99.90
7498;DHT22;3790;48.806;9.140;2024-03-23T17:27:01;5.80;99.90
7498;DHT22;3790;48.806;9.140;2024-03-23T17:32:06;5.90;99.90
7498;DHT22;3790;48.806;9.140;2024-03-23T17:37:07;5.70;99.90
7498;DHT22;3790;48.806;9.140;2024-03-23T17:42:07;5.60;99.90
7498;DHT22;3790;48.806;9.140;2024-03-23T17:47:08;4.70;99.90
7498;DHT22;3790;48.806;9.140;2024-03-23T17:52:09;4.00;99.90
7498;DHT22;3790;48.806;9.140;2024-03-23T17:57:13;3.40;99.90
7498;DHT22;3790;48.806;9.140;2024-03-23T18:02:14;3.10;99.90
7498;DHT22;3790;48.806;9.140;2024-03-23T18:07:18;3.00;99.90
7498;DHT22;3790;48.806;9.140;2024-03-23T18:12:19;3.00;99.90
7498;DHT22;3790;48.806;9.140;2024-03-23T18:17:21;3.10;99.90
7498;DHT22;3790;48.806;9.140;2024-03-23T18:22:21;3.10;99.90
7498;DHT22;3790;48.806;9.140;2024-03-23T18:27:22;3.10;99.90
7498;DHT22;3790;48.806;9.140;2024-03-23T18:32:23;3.20;99.90
7498;DHT22;3790;48.806;9.140;2024-03-23T18:37:24;3.20;99.90
7498;DHT22;3790;48.806;9.140;2024-03-23T18:42:24;3.20;99.90
7498;DHT22;3790;48.806;9.140;2024-03-23T18:47:24;3.20;99.90
7498;DHT22;3790;48.806;9.140;2024-03-23T18:52:25;3.30;99.90
7498;DHT22;3790;48.806;9.140;2024-03-23T18:57:25;3.30;99.90
7498;DHT22;3790;48.806;9.140;2024-03-23T19:02:26;3.30;99.90
7498;DHT22;3790;48.806;9.140;2024-03-23T19:07:26;3.30;99.90
7498;DHT22;3790;48.806;9.140;2024-03-23T19:12:27;3.50;99.90
7498;DHT22;3790;48.806;9.140;2024-03-23T19:17:27;3.60;99.90
7498;DHT22;3790;48.806;9.140;2024-03-23T19:22:28;3.80;99.90
7498;DHT22;3790;48.806;9.140;2024-03-23T19:27:28;3.90;99.90
7498;DHT22;3790;48.806;9.140;2024-03-23T19:32:29;4.00;99.90
7498;DHT22;3790;48.806;9.140;2024-03-23T19:37:30;3.90;99.90
7498;DHT22;3790;48.806;9.140;2024-03-23T19:42:31;3.70;99.90
7498;DHT22;3790;48.806;9.140;2024-03-23T19:47:31;3.50;99.90
7498;DHT22;3790;48.806;9.140;2024-03-23T19:52:32;3.30;99.90
7498;DHT22;3790;48.806;9.140;2024-03-23T19:57:32;3.10;99.90
7498;DHT22;3790;48.806;9.140;2024-03-23T20:02:33;3.10;99.90
7498;DHT22;3790;48.806;9.140;2024-03-23T20:07:33;3.10;99.90
7498;DHT22;3790;48.806;9.140;2024-03-23T20:12:34;3.20;99.90
7498;DHT22;3790;48.806;9.140;2024-03-23T20:17:34;3.30;99.90
7498;DHT22;3790;48.806;9.140;2024-03-23T20:22:35;3.30;99.90
7498;DHT22;3790;48.806;9.140;2024-03-23T20:27:36;3.30;99.90
7498;DHT22;3790;48.806;9.140;2024-03-23T20:32:36;3.40;99.90
7498;DHT22;3790;48.806;9.140;2024-03-23T20:37:37;3.40;99.90
7498;DHT22;3790;48.806;9.140;2024-03-23T20:42:38;3.30;99.90
7498;DHT22;3790;48.806;9.140;2024-03-23T20:47:38;3.30;99.90
7498;DHT22;3790;48.806;9.140;2024-03-23T20:52:39;3.40;99.90
7498;DHT22;3790;48.806;9.140;2024-03-23T20:57:40;3.40;99.90
7498;DHT22;3790;48.806;9.140;2024-03-23T21:02:40;3.30;99.90
7498;DHT22;3790;48.806;9.140;2024-03-23T21:07:41;3.30;99.90
7498;DHT22;3790;48.806;9.140;2024-03-23T21:12:41;3.30;99.90
7498;DHT22;3790;48.806;9.140;2024-03-23T21:17:42;3.30;99.90
7498;DHT22;3790;48.806;9.140;2024-03-23T21:22:42;3.30;99.90
7498;DHT22;3790;48.806;9.140;2024-03-23T21:27:43;3.40;99.90
7498;DHT22;3790;48.806;9.140;2024-03-23T21:32:43;3.50;99.90
7498;DHT22;3790;48.806;9.140;2024-03-23T21:37:44;3.60;99.90
7498;DHT22;3790;48.806;9.140;2024-03-23T21:42:45;3.60;99.90
7498;DHT22;3790;48.806;9.140;2024-03-23T21:47:45;3.70;99.90
7498;DHT22;3790;48.806;9.140;2024-03-23T21:52:46;3.60;99.90
7498;DHT22;3790;48.806;9.140;2024-03-23T21:57:47;3.80;99.90
7498;DHT22;3790;48.806;9.140;2024-03-23T22:02:48;3.90;99.90
7498;DHT22;3790;48.806;9.140;2024-03-23T22:07:49;4.00;99.90
7498;DHT22;3790;48.806;9.140;2024-03-23T22:12:49;4.00;99.90
7498;DHT22;3790;48.806;9.140;2024-03-23T22:17:50;3.80;99.90
7498;DHT22;3790;48.806;9.140;2024-03-23T22:22:51;3.60;99.90
7498;DHT22;3790;48.806;9.140;2024-03-23T22:27:51;3.70;99.90
7498;DHT22;3790;48.806;9.140;2024-03-23T22:32:52;3.70;99.90
7498;DHT22;3790;48.806;9.140;2024-03-23T22:37:55;3.80;99.90
7498;DHT22;3790;48.806;9.140;2024-03-23T22:42:55;3.90;99.90
7498;DHT22;3790;48.806;9.140;2024-03-23T22:47:56;3.90;99.90
7498;DHT22;3790;48.806;9.140;2024-03-23T22:52:56;3.80;99.90
7498;DHT22;3790;48.806;9.140;2024-03-23T22:57:57;3.90;99.90
7498;DHT22;3790;48.806;9.140;2024-03-23T23:02:57;4.10;99.90
7498;DHT22;3790;48.806;9.140;2024-03-23T23:07:58;4.20;99.90
7498;DHT22;3790;48.806;9.140;2024-03-23T23:12:58;4.30;99.90
7498;DHT22;3790;48.806;9.140;2024-03-23T23:17:59;4.10;99.90
7498;DHT22;3790;48.806;9.140;2024-03-23T23:23:00;4.10;99.90
7498;DHT22;3790;48.806;9.140;2024-03-23T23:28:00;4.10;99.90
7498;DHT22;3790;48.806;9.140;2024-03-23T23:33:01;4.20;99.90
7498;DHT22;3790;48.806;9.140;2024-03-23T23:38:01;4.30;99.90
7498;DHT22;3790;48.806;9.140;2024-03-23T23:43:02;4.50;99.90
7498;DHT22;3790;48.806;9.140;2024-03-23T23:48:03;4.40;99.90
7498;DHT22;3790;48.806;9.140;2024-03-23T23:53:03;4.50;99.90
7498;DHT22;3790;48.806;9.140;2024-03-23T23:58:04;4.60;99.90
